Alpine, AL (35014)

4:58 PM CDT on September 19, 2014 (GMT -0500)
Sycamore,Alabama | Change Station
CLOSE
Current Station
Personal Weather Station
Location: Sycamore, AL
Elevation: 552 ft
Nearby Weather Stations

Elev 552 ft 33.26 °N, 86.21 °W | Updated 3 seconds ago

Partly Cloudy
Partly Cloudy
78.3 °F
Feels Like 80 °F
N
4.5
Wind Variable Wind from North
Gusts 5.4 mph

Today
High -- | Low -- °F
--% Chance of Precip.
Yesterday
High -- | Low -- °F
Precip. -- in
6:30 AM 6:45 PM
Waning Crescent, 16% visible
Pressure 30.01 in
Visibility 10.0 miles
Clouds Scattered Clouds 12000 ft
Heat Index 80 °F
Dew Point 68 °F
Humidity 70%
Rainfall 0.02 in
Snow Depth Not available.
UV 1 out of 12
Pollen 8.20 out of 12
Ozone Good
PM2.5 Moderate
Flu Activity Not available.
METAR KANB 192153Z AUTO 07003KT 10SM SCT120 27/18 A3003 RMK AO2 SLP160 T02720183

More Conditions Fewer Conditions

Pressure 30.01 in
Visibility 10.0 miles
Clouds Scattered Clouds 12000 ft
Heat Index 80 °F
Dew Point 68 °F
Humidity 70%
Rainfall 0.02 in
Snow Depth Not available.
UV 1 out of 12
Pollen 8.20 out of 12
Ozone Good
PM2.5 Moderate
Flu Activity Not available.
METAR KANB 192153Z AUTO 07003KT 10SM SCT120 27/18 A3003 RMK AO2 SLP160 T02720183

More Conditions Fewer Conditions

10-Day Weather Forecast

Almanac

Astronomy

Sep. 19, 2014 Rise Set
Actual Time 6:30 AM CDT 6:45 PM CDT
Civil Twilight 6:06 AM CDT 7:10 PM CDT
Nautical Twilight 5:37 AM CDT 7:39 PM CDT
Astronomical Twilight 5:07 AM CDT 8:08 PM CDT
Moon 2:25 AM CDT 4:05 PM CDT
Length of Visible Light 13h 04m
Length of Day
12h 14m
Tomorrow will be 2m 3s shorter.
Waning Crescent, 16% of the Moon is Illuminated
Today
Waning Crescent
Sep 24
New
Oct 1
First Quarter
Oct 8
Full
Oct 15
Last Quarter

Today's Extremes

State Highs State Lows

Community

WunderPhotos

Upload Photos

1,754,703 photos uploaded!

WunderBlogs® & News

By Dr. Jeff Masters
Director of Meteorology, Weather Underground
By Kari Strenfel
Meteorologist, Weather Underground
By Christopher C. Burt
Weather Historian, Weather Underground
September 19, 2014
September 19, 2014
September 19, 2014

Nearby

Air Quality

  Air Quality AQ Index Pollutant
Yesterday Good
PM10
Yesterday Good
OZONE
Current Moderate
PM2.5
Current Good
OZONE
Friday Moderate
PM2.5
Friday Good
OZONE
Saturday Good
PM2.5
Saturday Good
OZONE
Sunday Moderate
PM2.5
Sunday Good
OZONE
Monday Good
OZONE
Monday Good
PM2.5

Snow Depth

Station Depth Elevation
No new snow has been reported.

Earthquake Activity

City Distance Mag. Time & Date
No recent earthquake activity has been reported nearby.
Minimum magnitude displayed is 2.5.

Coastal Water Temperatures

Place Temperature
No Stations Reporting

Nearby Weather Stations